Time;durP1;ratioP1;P1;durP2;ratioP2;P2;SDS_P1;SDS_P2;PMS_P1;PMS_P2;Temp;Humidity;BMP_temperature;BMP_pressure;BME280_temperature;BME280_humidity;BME280_pressure;Samples;Min_cycle;Max_cycle;Signal;HPM_P1;HPM_P2
2022/10/25 00:01:18;;;;;;;2.57;0.83;;;21.70;52.70;20.80;100688.00;;;;5071089;28;20040;-71
2022/10/25 00:03:44;;;;;;;2.70;0.70;;;21.70;52.80;20.80;100689.00;;;;5051716;28;20374;-71
2022/10/25 00:06:10;;;;;;;3.03;0.80;;;21.70;52.80;20.80;100692.00;;;;5076222;28;20036;-71
2022/10/25 00:08:36;;;;;;;3.28;0.70;;;21.70;52.90;20.80;100692.00;;;;5073704;28;20024;-71
2022/10/25 00:11:02;;;;;;;1.85;0.80;;;21.70;52.90;20.80;100686.00;;;;5072637;28;20480;-71
2022/10/25 00:13:27;;;;;;;3.00;0.70;;;21.80;52.90;20.80;100688.00;;;;5080572;28;20032;-71
2022/10/25 00:15:53;;;;;;;5.33;0.90;;;21.70;52.80;20.80;100683.00;;;;5073483;28;20028;-71
2022/10/25 00:18:19;;;;;;;2.97;0.90;;;21.70;52.80;20.80;100688.00;;;;5072876;28;20173;-71
2022/10/25 00:20:45;;;;;;;3.30;0.77;;;21.70;52.80;20.80;100687.00;;;;5072388;28;20119;-70
2022/10/25 00:23:12;;;;;;;3.17;0.73;;;21.70;52.80;20.80;100689.00;;;;5074264;28;20036;-71
2022/10/25 00:25:38;;;;;;;2.40;0.73;;;21.70;52.80;20.80;100688.00;;;;5073736;28;20029;-71
2022/10/25 00:28:04;;;;;;;1.67;0.90;;;21.70;52.80;20.80;100688.00;;;;5072901;28;20490;-71
2022/10/25 00:30:30;;;;;;;2.10;0.97;;;21.70;52.80;20.80;100692.00;;;;5054911;28;20113;-71
2022/10/25 00:32:56;;;;;;;2.45;0.80;;;21.70;52.80;20.80;100689.00;;;;5072933;28;20039;-71
2022/10/25 00:35:22;;;;;;;;;;;21.70;52.80;20.80;100687.00;;;;5072977;28;20461;-71
2022/10/25 00:37:48;;;;;;;1.70;0.70;;;21.70;52.90;20.80;100694.00;;;;5073188;28;20007;-70
2022/10/25 00:40:14;;;;;;;1.50;0.70;;;21.80;52.80;20.80;100692.00;;;;5072656;28;20494;-71
2022/10/25 00:42:40;;;;;;;3.25;1.00;;;21.70;52.80;20.80;100687.00;;;;5062960;28;20358;-71
2022/10/25 00:45:21;;;;;;;2.60;0.80;;;21.70;52.90;20.80;100701.00;;;;5072032;28;20039;-70
2022/10/25 00:47:55;;;;;;;2.90;0.55;;;21.70;52.90;20.80;100697.00;;;;5054265;28;20433;-70
2022/10/25 00:50:34;;;;;;;3.47;1.00;;;21.70;53.00;20.80;100705.00;;;;5056498;28;20020;-70
2022/10/25 00:53:10;;;;;;;1.90;0.57;;;21.70;53.00;20.80;100700.00;;;;5053989;28;20382;-71
2022/10/25 00:55:38;;;;;;;3.38;1.00;;;21.60;53.00;20.80;100704.00;;;;5053910;28;20470;-71
2022/10/25 00:58:08;;;;;;;3.80;0.80;;;21.70;53.10;20.80;100701.00;;;;5025186;28;20537;-71
2022/10/25 01:00:35;;;;;;;2.47;1.05;;;21.60;53.10;20.80;100690.00;;;;5054231;28;20041;-71
2022/10/25 01:03:00;;;;;;;2.70;0.65;;;21.70;53.10;20.80;100704.00;;;;5054832;28;20072;-71
2022/10/25 01:05:26;;;;;;;2.30;0.70;;;21.60;53.10;20.80;100701.00;;;;5062893;28;20032;-71
2022/10/25 01:07:52;;;;;;;1.57;0.60;;;21.70;53.10;20.80;100706.00;;;;5054348;28;20493;-71
2022/10/25 01:10:18;;;;;;;1.70;0.80;;;21.60;53.10;20.80;100707.00;;;;5054777;28;20067;-71
2022/10/25 01:12:43;;;;;;;3.27;1.30;;;21.70;53.10;20.80;100706.00;;;;5073346;28;20598;-71
2022/10/25 01:15:09;;;;;;;3.03;0.90;;;21.60;53.10;20.80;100699.00;;;;5072608;28;20619;-71
2022/10/25 01:17:50;;;;;;;1.58;0.57;;;21.70;53.20;20.80;100706.00;;;;5059235;28;20979;-71
2022/10/25 01:20:59;;;;;;;1.70;0.52;;;21.70;53.20;20.80;100709.00;;;;5079664;28;20531;-71
2022/10/25 01:23:52;;;;;;;2.92;0.77;;;21.70;53.10;20.80;100714.00;;;;5054735;28;20025;-71
2022/10/25 01:26:31;;;;;;;3.28;0.95;;;21.70;53.10;20.80;100717.00;;;;5053410;28;20028;-71
2022/10/25 01:29:14;;;;;;;2.22;0.77;;;21.70;53.10;20.80;100709.00;;;;5051888;28;20051;-71
2022/10/25 01:31:50;;;;;;;2.03;0.85;;;21.70;53.10;20.80;100713.00;;;;5070491;28;20039;-71
2022/10/25 01:34:59;;;;;;;1.45;0.98;;;21.70;53.20;20.80;100708.00;;;;5078449;28;20458;-71
2022/10/25 01:37:50;;;;;;;2.38;0.73;;;21.70;53.20;20.80;100705.00;;;;4989353;28;20088;-71
2022/10/25 01:40:33;;;;;;;2.88;0.60;;;21.70;53.20;20.80;100717.00;;;;4994492;28;20114;-71
2022/10/25 01:43:12;;;;;;;2.65;0.60;;;21.70;53.20;20.80;100708.00;;;;5031230;28;20098;-71
2022/10/25 01:45:52;;;;;;;3.20;0.90;;;21.70;53.20;20.80;100717.00;;;;5035461;28;20058;-71
2022/10/25 01:48:45;;;;;;;4.80;1.45;;;21.70;53.20;20.80;100715.00;;;;5045947;28;20500;-71
2022/10/25 01:51:14;;;;;;;3.47;1.20;;;21.70;53.20;20.80;100713.00;;;;5034833;28;20047;-71
2022/10/25 01:53:52;;;;;;;2.50;0.80;;;21.70;53.20;20.80;100724.00;;;;5077616;28;20044;-71
2022/10/25 01:56:28;;;;;;;2.97;0.80;;;21.60;53.20;20.80;100712.00;;;;5070775;28;20047;-71
2022/10/25 01:59:26;;;;;;;1.90;0.88;;;21.70;53.20;20.80;100716.00;;;;5037066;28;20103;-70
2022/10/25 02:01:58;;;;;;;4.15;0.88;;;21.70;53.20;20.80;100713.00;;;;5052143;28;20161;-71
2022/10/25 02:04:40;;;;;;;2.33;0.70;;;21.70;53.20;20.70;100712.00;;;;5052684;28;20029;-70
2022/10/25 02:07:10;;;;;;;4.95;1.10;;;21.60;53.20;20.70;100722.00;;;;5052682;28;20060;-70
2022/10/25 02:09:42;;;;;;;1.70;0.90;;;21.70;53.20;20.70;100727.00;;;;5054219;28;20027;-71
2022/10/25 02:12:12;;;;;;;3.10;0.80;;;21.60;53.30;20.70;100723.00;;;;5050471;28;20112;-71
2022/10/25 02:14:38;;;;;;;4.00;0.82;;;21.60;53.20;20.70;100728.00;;;;5051786;28;20143;-71
2022/10/25 02:17:24;;;;;;;2.30;0.83;;;21.70;53.30;20.70;100730.00;;;;5064753;28;20081;-71
2022/10/25 02:19:53;;;;;;;2.55;0.70;;;21.60;53.30;20.70;100728.00;;;;5053765;28;20478;-71
2022/10/25 02:22:22;;;;;;;3.60;0.98;;;21.70;53.30;20.70;100723.00;;;;5052722;28;20082;-70
2022/10/25 02:24:47;;;;;;;2.03;0.85;;;21.70;53.30;20.70;100730.00;;;;5055737;28;20385;-71
2022/10/25 02:27:13;;;;;;;1.97;0.87;;;21.70;53.30;20.70;100727.00;;;;5050918;28;20021;-71
2022/10/25 02:29:39;;;;;;;2.07;0.83;;;21.60;53.30;20.80;100726.00;;;;5058318;28;20111;-71
2022/10/25 02:32:05;;;;;;;1.50;0.83;;;21.60;53.30;20.80;100731.00;;;;5061830;28;20028;-71
2022/10/25 02:34:31;;;;;;;3.83;1.10;;;21.70;53.30;20.80;100727.00;;;;5053512;28;20103;-71
2022/10/25 02:36:59;;;;;;;2.80;0.88;;;21.60;53.30;20.70;100724.00;;;;5048853;28;20036;-71
2022/10/25 02:39:25;;;;;;;2.05;1.02;;;21.60;53.30;20.70;100728.00;;;;5070131;28;20044;-71
2022/10/25 02:41:50;;;;;;;2.35;1.10;;;21.60;53.30;20.70;100730.00;;;;5064706;28;20435;-71
2022/10/25 02:44:16;;;;;;;4.60;1.07;;;21.60;53.40;20.70;100732.00;;;;5071016;28;20036;-71
2022/10/25 02:46:42;;;;;;;1.87;1.07;;;21.60;53.30;20.70;100734.00;;;;5052262;28;20107;-71
2022/10/25 02:49:08;;;;;;;3.13;1.00;;;21.60;53.30;20.70;100732.00;;;;5053466;28;20056;-71
2022/10/25 02:51:33;;;;;;;3.17;1.10;;;21.70;53.40;20.70;100733.00;;;;5069868;28;20131;-71
2022/10/25 02:53:59;;;;;;;2.23;1.03;;;21.70;53.40;20.70;100740.00;;;;5071130;28;20107;-71
2022/10/25 02:56:25;;;;;;;2.07;1.00;;;21.60;53.30;20.70;100739.00;;;;5070105;28;20028;-71
2022/10/25 02:58:51;;;;;;;1.93;0.83;;;21.70;53.40;20.70;100738.00;;;;5071786;28;20052;-71
2022/10/25 03:01:18;;;;;;;4.20;1.02;;;21.60;53.30;20.70;100738.00;;;;5050480;28;20029;-70
2022/10/25 03:03:44;;;;;;;;;;;21.60;53.30;20.70;100740.00;;;;5055338;28;20048;-71
2022/10/25 03:06:10;;;;;;;2.58;1.17;;;21.60;53.30;20.70;100743.00;;;;5074763;28;19916;-71
2022/10/25 03:08:36;;;;;;;3.05;0.98;;;21.60;53.30;20.70;100744.00;;;;5058834;28;20032;-71
2022/10/25 03:11:02;;;;;;;;;;;21.60;53.30;20.70;100741.00;;;;5056532;28;20067;-71
2022/10/25 03:13:28;;;;;;;2.45;1.10;;;21.60;53.30;20.70;100754.00;;;;5075503;28;20313;-71
2022/10/25 03:15:53;;;;;;;3.80;0.90;;;21.60;53.20;20.70;100754.00;;;;5074435;28;20032;-71
2022/10/25 03:18:21;;;;;;;2.50;1.07;;;21.60;53.30;20.70;100745.00;;;;5074801;28;20074;-71
2022/10/25 03:20:46;;;;;;;3.67;1.05;;;21.60;53.30;20.70;100752.00;;;;5073364;28;20385;-71
2022/10/25 03:23:12;;;;;;;3.13;1.00;;;21.60;53.30;20.70;100760.00;;;;5077975;28;20028;-71
2022/10/25 03:25:58;;;;;;;4.13;0.93;;;21.60;53.40;20.70;100757.00;;;;5073857;28;20437;-71
2022/10/25 03:28:26;;;;;;;3.47;0.95;;;21.70;53.40;20.70;100774.00;;;;5074221;28;20540;-71
2022/10/25 03:30:52;;;;;;;2.03;0.98;;;21.70;53.40;20.70;100775.00;;;;5055302;28;20029;-71
2022/10/25 03:33:18;;;;;;;1.90;0.88;;;21.60;53.40;20.70;100776.00;;;;5074159;28;20029;-71
2022/10/25 03:35:43;;;;;;;2.53;1.23;;;21.70;53.40;20.70;100777.00;;;;5073395;28;20405;-71
2022/10/25 03:38:09;;;;;;;2.93;1.13;;;21.70;53.40;20.70;100780.00;;;;5074500;28;20072;-71
2022/10/25 03:40:35;;;;;;;2.97;1.07;;;21.60;53.40;20.70;100771.00;;;;5073430;28;20481;-71
2022/10/25 03:43:01;;;;;;;4.77;1.00;;;21.60;53.40;20.70;100777.00;;;;5074052;28;20537;-71
2022/10/25 03:45:26;;;;;;;3.23;1.10;;;21.60;53.40;20.70;100781.00;;;;5073538;28;20558;-71
2022/10/25 03:47:52;;;;;;;1.70;0.90;;;21.60;53.40;20.80;100778.00;;;;5074091;28;20112;-71
2022/10/25 03:50:18;;;;;;;4.87;1.10;;;21.70;53.40;20.70;100790.00;;;;5073873;28;20112;-71
2022/10/25 03:52:44;;;;;;;4.40;1.48;;;21.70;53.40;20.80;100791.00;;;;5055490;28;20032;-71
2022/10/25 03:55:09;;;;;;;3.80;1.30;;;21.60;53.40;20.80;100797.00;;;;5073373;28;20046;-71
2022/10/25 03:57:35;;;;;;;2.57;1.60;;;21.60;53.40;20.80;100793.00;;;;5056199;28;20082;-71
2022/10/25 04:00:01;;;;;;;5.10;1.47;;;21.60;53.40;20.80;100798.00;;;;5074499;28;20106;-71
2022/10/25 04:02:27;;;;;;;4.27;1.00;;;21.70;53.40;20.80;100790.00;;;;5072528;28;20064;-71
2022/10/25 04:04:53;;;;;;;4.40;1.55;;;21.70;53.40;20.80;100800.00;;;;5073442;28;20033;-71
2022/10/25 04:07:18;;;;;;;5.40;1.20;;;21.60;53.40;20.80;100802.00;;;;5055974;28;20032;-71
2022/10/25 04:09:44;;;;;;;3.50;0.90;;;21.70;53.40;20.80;100803.00;;;;5073927;28;20029;-71
2022/10/25 04:12:10;;;;;;;2.93;1.03;;;21.70;53.40;20.80;100814.00;;;;5073107;28;20477;-71
2022/10/25 04:14:36;;;;;;;1.65;0.88;;;21.70;53.40;20.80;100807.00;;;;5057084;28;20474;-71
2022/10/25 04:17:02;;;;;;;3.63;0.90;;;21.70;53.40;20.80;100810.00;;;;5054544;28;20047;-71
2022/10/25 04:19:27;;;;;;;3.03;1.27;;;21.70;53.40;20.80;100802.00;;;;5054194;28;20494;-71
2022/10/25 04:21:53;;;;;;;3.17;1.10;;;21.70;53.40;20.80;100802.00;;;;5072130;28;20067;-71
2022/10/25 04:24:19;;;;;;;4.90;1.13;;;21.70;53.40;20.80;100813.00;;;;5074271;28;20048;-71
2022/10/25 04:26:45;;;;;;;4.83;1.33;;;21.70;53.40;20.80;100819.00;;;;5072378;28;20062;-70
2022/10/25 04:29:11;;;;;;;3.30;1.17;;;21.70;53.40;20.80;100816.00;;;;5073687;28;20433;-71
2022/10/25 04:31:36;;;;;;;3.25;1.02;;;21.70;53.40;20.80;100809.00;;;;5054382;28;20086;-71
2022/10/25 04:34:02;;;;;;;3.73;1.03;;;21.70;53.40;20.80;100818.00;;;;5073933;28;20401;-71
2022/10/25 04:36:28;;;;;;;3.40;1.20;;;21.70;53.40;20.80;100825.00;;;;5072038;28;20036;-70
2022/10/25 04:38:54;;;;;;;4.18;1.10;;;21.60;53.30;20.80;100820.00;;;;5055800;28;20035;-71
2022/10/25 04:41:20;;;;;;;3.58;1.27;;;21.70;53.40;20.80;100816.00;;;;5053916;28;20044;-72
2022/10/25 04:43:46;;;;;;;6.10;1.80;;;21.70;53.40;20.80;100820.00;;;;5073719;28;20043;-71
2022/10/25 04:46:13;;;;;;;5.35;1.30;;;21.70;53.40;20.70;100826.00;;;;5053975;28;20028;-71
2022/10/25 04:48:39;;;;;;;5.60;1.98;;;21.70;53.40;20.70;100822.00;;;;5073527;28;20385;-71
2022/10/25 04:51:05;;;;;;;5.65;1.20;;;21.70;53.30;20.70;100817.00;;;;5071578;28;20412;-71
2022/10/25 04:53:31;;;;;;;5.10;1.50;;;21.70;53.30;20.70;100826.00;;;;5072837;28;20032;-71
2022/10/25 04:56:05;;;;;;;5.80;1.37;;;21.70;53.40;20.70;100828.00;;;;5054026;28;20463;-71
2022/10/25 04:58:31;;;;;;;4.32;1.25;;;21.70;53.40;20.70;100827.00;;;;5053882;28;20043;-71
2022/10/25 05:01:05;;;;;;;3.47;1.30;;;21.60;53.30;20.70;100831.00;;;;5071926;28;20123;-71
2022/10/25 05:03:31;;;;;;;4.85;1.13;;;21.60;53.30;20.70;100822.00;;;;5055880;28;20124;-71
2022/10/25 05:06:21;;;;;;;7.38;1.48;;;21.60;53.30;20.70;100825.00;;;;5049840;28;20090;-71
2022/10/25 05:08:48;;;;;;;4.70;1.50;;;21.60;53.40;20.70;100828.00;;;;5072351;28;20028;-71
2022/10/25 05:11:15;;;;;;;4.05;1.35;;;21.60;53.30;20.70;100826.00;;;;5071504;28;20021;-71
2022/10/25 05:13:41;;;;;;;2.03;1.00;;;21.70;53.40;20.70;100830.00;;;;5073352;28;20077;-71
2022/10/25 05:16:10;;;;;;;5.03;1.25;;;21.60;53.30;20.70;100832.00;;;;5071591;28;20020;-71
2022/10/25 05:18:35;;;;;;;8.38;1.70;;;21.70;53.40;20.70;100834.00;;;;5079632;28;20047;-71
2022/10/25 05:21:03;;;;;;;5.47;1.20;;;21.60;53.30;20.70;100846.00;;;;5066603;28;20033;-71
2022/10/25 05:23:29;;;;;;;7.25;1.58;;;21.70;53.40;20.70;100847.00;;;;5054678;28;20370;-71
2022/10/25 05:26:09;;;;;;;7.67;1.40;;;21.60;53.30;20.70;100847.00;;;;5052327;28;20024;-70
2022/10/25 05:28:35;;;;;;;3.35;1.48;;;21.60;53.30;20.70;100851.00;;;;5070892;28;20071;-71
2022/10/25 05:31:05;;;;;;;7.40;2.00;;;21.60;53.30;20.70;100864.00;;;;5051401;28;20093;-71
2022/10/25 05:33:32;;;;;;;7.07;1.92;;;21.60;53.40;20.70;100869.00;;;;5072446;28;20419;-71
2022/10/25 05:36:01;;;;;;;7.20;1.65;;;21.60;53.30;20.70;100858.00;;;;5068009;28;20060;-71
2022/10/25 05:38:27;;;;;;;4.85;2.03;;;21.60;53.30;20.60;100863.00;;;;5051539;28;20121;-71
2022/10/25 05:40:55;;;;;;;4.95;2.10;;;21.60;53.30;20.60;100854.00;;;;5043256;28;20051;-71
2022/10/25 05:43:20;;;;;;;4.28;1.73;;;21.60;53.40;20.70;100858.00;;;;5070963;28;20045;-71
2022/10/25 05:45:46;;;;;;;4.47;1.97;;;21.60;53.40;20.70;100858.00;;;;5070606;28;20051;-71
2022/10/25 05:48:12;;;;;;;9.37;2.30;;;21.60;53.40;20.70;100868.00;;;;5071662;28;20077;-71
2022/10/25 05:50:38;;;;;;;5.37;1.70;;;21.60;53.40;20.70;100869.00;;;;5071197;28;20056;-71
2022/10/25 05:53:03;;;;;;;4.13;2.20;;;21.60;53.40;20.70;100873.00;;;;5071157;28;20122;-71
2022/10/25 05:55:29;;;;;;;4.63;1.83;;;21.60;53.40;20.70;100869.00;;;;5070759;28;20064;-70
2022/10/25 05:57:55;;;;;;;6.07;1.83;;;21.60;53.40;20.70;100875.00;;;;5081420;28;20068;-71
2022/10/25 06:00:20;;;;;;;7.30;2.77;;;21.60;53.40;20.70;100876.00;;;;5070898;28;20462;-71
2022/10/25 06:02:46;;;;;;;5.03;1.90;;;21.60;53.30;20.70;100877.00;;;;5071434;28;20028;-71
2022/10/25 06:05:12;;;;;;;4.27;1.93;;;21.60;53.30;20.70;100890.00;;;;5070375;28;20444;-71
2022/10/25 06:07:38;;;;;;;3.97;1.90;;;21.60;53.40;20.70;100890.00;;;;5071256;28;20032;-71
2022/10/25 06:10:04;;;;;;;3.77;1.90;;;21.60;53.30;20.70;100894.00;;;;5069499;28;20054;-71
2022/10/25 06:12:30;;;;;;;5.13;1.75;;;21.60;53.30;20.70;100891.00;;;;5069969;28;20066;-71
2022/10/25 06:14:55;;;;;;;6.80;1.87;;;21.60;53.30;20.60;100893.00;;;;5070924;28;20458;-71
2022/10/25 06:17:21;;;;;;;6.57;2.50;;;21.60;53.30;20.60;100904.00;;;;5071055;28;20560;-70
2022/10/25 06:19:47;;;;;;;4.30;2.20;;;21.60;53.20;20.60;100885.00;;;;5071046;28;20094;-70
2022/10/25 06:22:12;;;;;;;4.80;2.20;;;21.60;53.30;20.60;100901.00;;;;5070303;28;20123;-70
2022/10/25 06:24:38;;;;;;;4.67;2.20;;;21.60;53.20;20.60;100903.00;;;;5071154;28;20064;-70
2022/10/25 06:27:04;;;;;;;5.60;2.07;;;21.70;53.20;20.60;100900.00;;;;5070301;28;20052;-71
2022/10/25 06:29:30;;;;;;;4.87;2.27;;;21.60;53.20;20.60;100900.00;;;;5069901;28;20076;-70
2022/10/25 06:31:55;;;;;;;5.57;2.43;;;21.50;53.20;20.60;100909.00;;;;5071008;28;20068;-71
2022/10/25 06:34:21;;;;;;;5.70;2.17;;;21.50;53.90;20.60;100917.00;;;;5071750;28;20591;-71
2022/10/25 06:36:47;;;;;;;4.93;1.67;;;21.60;53.30;20.60;100922.00;;;;5070186;28;20492;-71
2022/10/25 06:39:13;;;;;;;5.67;1.97;;;21.50;53.20;20.60;100914.00;;;;5069995;28;20481;-70
2022/10/25 06:41:39;;;;;;;5.73;2.00;;;21.50;53.30;20.60;100925.00;;;;5070637;28;20060;-71
2022/10/25 06:44:05;;;;;;;6.05;1.80;;;21.50;53.20;20.60;100935.00;;;;5071466;28;20515;-70
2022/10/25 06:46:32;;;;;;;6.93;2.50;;;21.60;53.30;20.60;100939.00;;;;5051100;28;20029;-71
2022/10/25 06:48:58;;;;;;;;;;;21.50;53.30;20.60;100937.00;;;;5054165;28;20031;-71
2022/10/25 06:51:25;;;;;;;3.10;1.65;;;21.60;53.40;20.60;100940.00;;;;5051403;28;19912;-70
2022/10/25 06:54:01;;;;;;;5.20;1.90;;;21.60;53.20;20.60;100945.00;;;;5071148;28;20028;-71
2022/10/25 06:56:27;;;;;;;2.95;1.67;;;21.50;53.20;20.60;100958.00;;;;5037851;28;20146;-71
2022/10/25 06:58:53;;;;;;;6.65;1.88;;;21.60;53.20;20.60;100961.00;;;;5071774;28;20029;-71
2022/10/25 07:01:20;;;;;;;6.05;1.83;;;21.60;53.30;20.60;100963.00;;;;5051079;28;20044;-70
2022/10/25 07:03:46;;;;;;;5.30;1.67;;;21.60;53.20;20.70;100976.00;;;;5053145;28;20074;-71
2022/10/25 07:06:17;;;;;;;4.63;1.77;;;21.60;53.20;20.60;100981.00;;;;5070131;28;20412;-71
2022/10/25 07:08:44;;;;;;;5.45;1.70;;;21.60;53.30;20.70;100985.00;;;;5070986;28;20024;-71
2022/10/25 07:11:18;;;;;;;7.38;2.03;;;21.60;53.20;20.70;100996.00;;;;5052161;28;20028;-71
2022/10/25 07:13:44;;;;;;;3.78;1.60;;;21.60;53.90;20.60;100988.00;;;;5054567;28;20036;-71
2022/10/25 07:16:12;;;;;;;2.97;1.60;;;21.60;53.20;20.70;100997.00;;;;5069942;28;20036;-71
2022/10/25 07:18:38;;;;;;;4.43;1.90;;;21.60;53.30;20.70;100997.00;;;;5039671;28;20063;-71
2022/10/25 07:21:06;;;;;;;5.20;1.90;;;21.60;53.20;20.70;100994.00;;;;5068364;28;20075;-71
2022/10/25 07:23:32;;;;;;;4.72;1.67;;;21.60;53.20;20.70;100999.00;;;;5036593;28;20033;-71
2022/10/25 07:25:58;;;;;;;3.83;2.03;;;21.60;53.20;20.70;100997.00;;;;5050983;28;20485;-71
2022/10/25 07:28:24;;;;;;;4.33;1.63;;;21.60;53.90;20.70;101008.00;;;;5075343;28;20032;-71
2022/10/25 07:30:49;;;;;;;5.47;2.07;;;21.60;53.20;20.70;101003.00;;;;5045706;28;20112;-66
2022/10/25 07:33:17;;;;;;;5.00;2.10;;;21.60;53.10;20.70;101007.00;;;;5069794;28;20091;-65
2022/10/25 07:35:49;;;;;;;3.70;1.60;;;21.70;53.20;20.70;101008.00;;;;5068996;28;20579;-66
2022/10/25 07:38:15;;;;;;;7.00;2.03;;;21.50;53.10;20.60;101015.00;;;;5052158;28;20163;-65
2022/10/25 07:40:41;;;;;;;4.60;2.30;;;21.60;53.10;20.60;101003.00;;;;5051273;28;20036;-65
2022/10/25 07:43:07;;;;;;;4.45;1.70;;;21.60;53.10;20.60;101003.00;;;;5070266;28;20037;-66
2022/10/25 07:45:33;;;;;;;3.97;1.95;;;21.60;53.10;20.60;101000.00;;;;5051659;28;20050;-66
2022/10/25 07:47:59;;;;;;;4.07;1.80;;;21.50;53.10;20.60;101004.00;;;;5069435;28;20040;-65
2022/10/25 07:50:25;;;;;;;2.92;1.83;;;21.60;53.10;20.60;101018.00;;;;5069508;28;20115;-65
2022/10/25 07:52:50;;;;;;;4.90;2.20;;;21.60;53.10;20.60;101014.00;;;;5067813;28;20024;-65
2022/10/25 07:55:16;;;;;;;2.80;1.60;;;21.60;53.10;20.60;101016.00;;;;5071632;28;20100;-66
2022/10/25 07:57:42;;;;;;;3.17;1.93;;;21.60;53.20;20.60;101019.00;;;;5071575;28;20162;-66
2022/10/25 08:00:08;;;;;;;4.00;2.03;;;21.50;53.30;20.60;101002.00;;;;5072564;28;20118;-65
2022/10/25 08:02:34;;;;;;;4.38;2.10;;;21.60;53.20;20.60;101016.00;;;;5036887;28;20036;-65
2022/10/25 08:05:00;;;;;;;4.30;1.83;;;21.60;53.10;20.60;101022.00;;;;5071405;28;20508;-65
2022/10/25 08:07:26;;;;;;;3.97;1.88;;;21.60;53.20;20.60;101019.00;;;;5071738;28;20674;-66
2022/10/25 08:09:52;;;;;;;4.65;2.22;;;21.50;53.10;20.60;101018.00;;;;5071932;28;20028;-66
2022/10/25 08:12:18;;;;;;;5.05;2.13;;;21.50;53.10;20.60;101019.00;;;;5080262;28;20418;-66
2022/10/25 08:14:44;;;;;;;5.10;2.20;;;21.50;53.10;20.60;101023.00;;;;5073350;28;20043;-66
2022/10/25 08:17:09;;;;;;;4.57;1.87;;;21.60;53.90;20.60;101027.00;;;;5072938;28;20118;-65
2022/10/25 08:19:35;;;;;;;5.10;2.10;;;21.60;53.20;20.60;101030.00;;;;5077406;28;20071;-65
2022/10/25 08:22:01;;;;;;;4.93;1.97;;;21.50;53.10;20.60;101026.00;;;;5072786;28;20153;-65
2022/10/25 08:24:27;;;;;;;3.73;1.97;;;21.50;53.10;20.60;101032.00;;;;5074209;28;20104;-65
2022/10/25 08:26:52;;;;;;;5.77;2.17;;;21.60;53.20;20.60;101034.00;;;;5071939;28;20070;-65
2022/10/25 08:29:18;;;;;;;3.73;2.00;;;21.60;53.20;20.60;101032.00;;;;5072045;28;20100;-65
2022/10/25 08:31:44;;;;;;;5.23;2.27;;;21.60;53.20;20.60;101041.00;;;;5072635;28;20517;-66
2022/10/25 08:34:10;;;;;;;3.60;1.90;;;21.50;53.20;20.60;101043.00;;;;5074012;28;20082;-65
2022/10/25 08:36:35;;;;;;;8.00;2.40;;;21.50;53.20;20.60;101042.00;;;;5072220;28;20119;-66
2022/10/25 08:39:01;;;;;;;4.33;1.93;;;21.50;53.20;20.60;101049.00;;;;5077461;28;20063;-66
2022/10/25 08:41:48;;;;;;;6.83;2.83;;;21.50;53.20;20.60;101051.00;;;;5071847;28;20056;-66
2022/10/25 08:44:43;;;;;;;6.28;2.15;;;21.60;53.30;20.60;101047.00;;;;5070124;28;20029;-65
2022/10/25 08:47:32;;;;;;;6.90;1.73;;;21.50;53.20;20.60;101053.00;;;;5058150;28;20032;-66
2022/10/25 08:50:05;;;;;;;7.03;2.42;;;21.50;53.20;20.60;101054.00;;;;5057521;28;20386;-66
2022/10/25 08:52:49;;;;;;;5.20;2.13;;;21.50;53.20;20.60;101044.00;;;;5071638;28;20360;-65
2022/10/25 08:55:35;;;;;;;3.70;2.13;;;21.50;53.30;20.60;101049.00;;;;5071698;28;20025;-66
2022/10/25 08:58:02;;;;;;;6.20;2.40;;;21.60;53.30;20.60;101058.00;;;;5048835;28;20032;-66
2022/10/25 09:00:34;;;;;;;4.35;1.85;;;21.50;53.20;20.60;101056.00;;;;5053414;28;20378;-67
2022/10/25 09:03:00;;;;;;;3.00;1.92;;;21.50;53.30;20.60;101051.00;;;;5050999;28;20594;-66
2022/10/25 09:05:42;;;;;;;2.90;1.73;;;21.50;53.20;20.60;101064.00;;;;5056852;28;20038;-65
2022/10/25 09:08:34;;;;;;;4.63;1.88;;;21.50;53.20;20.60;101065.00;;;;5051392;28;20048;-66
2022/10/25 09:11:42;;;;;;;4.10;1.98;;;21.50;53.20;20.60;101071.00;;;;5053816;28;20031;-66
2022/10/25 09:14:31;;;;;;;5.57;2.55;;;21.60;53.30;20.60;101070.00;;;;5057453;28;20032;-66
2022/10/25 09:17:14;;;;;;;2.70;2.00;;;21.50;53.20;20.60;101074.00;;;;5052350;28;20020;-65
2022/10/25 09:19:59;;;;;;;4.70;3.10;;;21.60;53.20;20.60;101074.00;;;;5052914;28;20107;-66
2022/10/25 09:22:26;;;;;;;5.22;2.03;;;21.50;53.20;20.60;101086.00;;;;5054652;28;20112;-65
2022/10/25 09:24:54;;;;;;;5.57;2.17;;;21.60;53.20;20.60;101089.00;;;;5055192;28;20029;-65
2022/10/25 09:27:34;;;;;;;6.05;2.20;;;21.50;53.20;20.60;101096.00;;;;5050820;28;20108;-65
2022/10/25 09:30:10;;;;;;;3.55;1.70;;;21.50;53.20;20.60;101096.00;;;;5078841;28;20048;-65
2022/10/25 09:32:42;;;;;;;5.63;1.90;;;21.50;53.20;20.60;101110.00;;;;5072351;28;20024;-66
2022/10/25 09:35:21;;;;;;;5.43;2.33;;;21.60;53.30;20.60;101103.00;;;;5072038;28;20040;-66
2022/10/25 09:37:52;;;;;;;5.00;2.00;;;21.50;53.20;20.50;101104.00;;;;5053837;28;20115;-66
2022/10/25 09:40:21;;;;;;;5.60;2.03;;;21.50;53.20;20.60;101103.00;;;;5066860;28;20078;-66
2022/10/25 09:42:56;;;;;;;5.25;2.20;;;21.50;53.20;20.50;101106.00;;;;5056918;28;20542;-65
2022/10/25 09:45:48;;;;;;;3.70;1.80;;;21.50;53.30;20.50;101111.00;;;;5052005;28;20024;-66
2022/10/25 09:48:26;;;;;;;3.38;1.98;;;21.50;53.20;20.50;101115.00;;;;5034960;28;20446;-65
2022/10/25 09:51:26;;;;;;;3.67;2.00;;;21.50;53.20;20.50;101128.00;;;;5066841;28;20401;-65
2022/10/25 09:53:51;;;;;;;3.20;1.65;;;21.50;53.20;20.50;101129.00;;;;5072325;28;20036;-66
2022/10/25 09:56:17;;;;;;;4.07;1.87;;;21.50;53.10;20.50;101125.00;;;;5035155;28;20036;-66
2022/10/25 09:58:46;;;;;;;5.67;2.30;;;21.50;53.20;20.50;101128.00;;;;5054497;28;20433;-65
2022/10/25 10:01:41;;;;;;;3.08;1.60;;;21.50;53.10;20.50;101134.00;;;;5053197;28;20474;-65
2022/10/25 10:04:36;;;;;;;4.50;1.70;;;21.50;53.20;20.50;101142.00;;;;5051677;28;20108;-66
2022/10/25 10:07:06;;;;;;;5.45;1.80;;;21.40;53.20;20.50;101139.00;;;;5053859;28;20032;-66
2022/10/25 10:09:32;;;;;;;2.53;1.50;;;21.50;53.10;20.60;101153.00;;;;5054171;28;20029;-66
2022/10/25 10:11:58;;;;;;;3.33;1.40;;;21.50;53.10;20.60;101148.00;;;;5045707;28;20043;-66
2022/10/25 10:14:49;;;;;;;5.57;2.05;;;21.50;53.20;20.60;101148.00;;;;5057839;28;20036;-66
2022/10/25 10:17:14;;;;;;;3.05;1.75;;;21.50;53.20;20.50;101150.00;;;;5037407;28;20127;-66
2022/10/25 10:19:40;;;;;;;4.00;1.60;;;21.50;53.10;20.60;101157.00;;;;5057734;28;20117;-65
2022/10/25 10:22:13;;;;;;;10.87;1.70;;;21.50;53.10;20.50;101161.00;;;;5070738;28;20063;-66
2022/10/25 10:24:41;;;;;;;3.88;1.65;;;21.50;53.00;20.50;101163.00;;;;5036799;28;20036;-65
2022/10/25 10:27:11;;;;;;;7.90;2.00;;;21.40;53.10;20.60;101164.00;;;;5076579;28;20037;-65
2022/10/25 10:29:58;;;;;;;4.68;1.52;;;21.50;53.10;20.50;101157.00;;;;5079506;28;20029;-65
2022/10/25 10:32:37;;;;;;;2.05;1.50;;;21.50;53.10;20.50;101169.00;;;;5055957;28;20465;-66
2022/10/25 10:35:05;;;;;;;3.13;1.80;;;21.50;53.10;20.60;101165.00;;;;5056791;28;20704;-66
2022/10/25 10:37:32;;;;;;;3.47;1.58;;;21.50;53.10;20.60;101164.00;;;;5046858;28;20036;-66
2022/10/25 10:40:07;;;;;;;3.42;1.40;;;21.50;53.10;20.60;101159.00;;;;5071230;28;20032;-65
2022/10/25 10:42:35;;;;;;;2.33;1.50;;;21.50;53.00;20.60;101165.00;;;;5052651;28;20041;-66
2022/10/25 10:45:07;;;;;;;3.15;1.38;;;21.50;52.90;20.60;101166.00;;;;5053049;28;20432;-65
2022/10/25 10:47:50;;;;;;;2.88;1.77;;;21.50;52.90;20.60;101169.00;;;;5071267;28;20033;-66
2022/10/25 10:50:24;;;;;;;2.67;1.42;;;21.40;52.90;20.60;101171.00;;;;5070920;28;20120;-66
2022/10/25 10:53:20;;;;;;;4.03;1.52;;;21.50;52.90;20.60;101170.00;;;;5055427;28;20036;-65
2022/10/25 10:55:52;;;;;;;4.45;1.67;;;21.50;53.00;20.60;101165.00;;;;5053737;28;20077;-65
2022/10/25 10:58:22;;;;;;;3.70;2.05;;;21.60;53.00;20.60;101171.00;;;;5052776;28;20561;-65
2022/10/25 11:01:11;;;;;;;3.33;1.75;;;21.50;53.60;20.60;101168.00;;;;5052280;28;20047;-65